Time;durP1;ratioP1;P1;durP2;ratioP2;P2;SDS_P1;SDS_P2;PMS_P1;PMS_P2;Temp;Humidity;BMP_temperature;BMP_pressure;BME280_temperature;BME280_humidity;BME280_pressure;Samples;Min_cycle;Max_cycle;Signal;HPM_P1;HPM_P2
2022/10/12 00:01:40;;;;;;;7.80;3.80;;;13.20;99.90;;;;;;6277470;28;20052;-80
2022/10/12 00:04:43;;;;;;;9.73;3.65;;;13.20;99.90;;;;;;6278423;28;20045;-80
2022/10/12 00:07:45;;;;;;;13.82;6.47;;;13.20;99.90;;;;;;6279206;28;20049;-80
2022/10/12 00:10:46;;;;;;;9.40;3.90;;;13.10;99.90;;;;;;6280129;28;20167;-80
2022/10/12 00:13:48;;;;;;;11.85;5.05;;;13.10;99.90;;;;;;6282947;28;20610;-80
2022/10/12 00:16:50;;;;;;;17.58;4.60;;;13.00;99.90;;;;;;6277940;28;20395;-80
2022/10/12 00:19:53;;;;;;;6.45;3.65;;;13.00;99.90;;;;;;6277320;28;20056;-80
2022/10/12 00:22:54;;;;;;;11.95;4.00;;;12.90;99.90;;;;;;6278121;28;20056;-80
2022/10/12 00:25:56;;;;;;;8.93;4.15;;;12.90;99.90;;;;;;6277171;28;20076;-80
2022/10/12 00:29:02;;;;;;;8.52;3.42;;;12.80;99.90;;;;;;6277288;28;20055;-80
2022/10/12 00:32:04;;;;;;;10.25;4.50;;;12.80;99.90;;;;;;6278534;28;20099;-80
2022/10/12 00:35:08;;;;;;;6.72;3.83;;;12.80;99.90;;;;;;6277214;28;20533;-79
2022/10/12 00:38:10;;;;;;;11.80;4.65;;;12.80;99.90;;;;;;6276498;28;20048;-79
2022/10/12 00:41:13;;;;;;;7.13;4.97;;;12.70;99.90;;;;;;6276692;28;20056;-79
2022/10/12 00:44:35;;;;;;;16.42;4.47;;;12.60;99.90;;;;;;6276351;28;20502;-80
2022/10/12 00:47:39;;;;;;;15.45;5.35;;;12.60;99.90;;;;;;6269260;28;20053;-80
2022/10/12 00:50:42;;;;;;;8.80;4.43;;;12.60;99.90;;;;;;6251690;28;20041;-80
2022/10/12 00:53:49;;;;;;;11.25;3.40;;;12.60;99.90;;;;;;6251319;28;20049;-79
2022/10/12 00:56:54;;;;;;;13.57;4.75;;;12.60;99.90;;;;;;6252176;28;20056;-80
2022/10/12 01:00:00;;;;;;;9.65;3.47;;;12.50;99.90;;;;;;6251658;28;20049;-80
2022/10/12 01:03:02;;;;;;;13.25;4.32;;;12.60;99.90;;;;;;6252204;28;20411;-80
2022/10/12 01:06:06;;;;;;;7.40;4.25;;;12.60;99.90;;;;;;6252125;28;20045;-80
2022/10/12 01:09:08;;;;;;;15.00;4.55;;;12.50;99.90;;;;;;6251476;28;20056;-80
2022/10/12 01:12:10;;;;;;;11.35;3.85;;;12.40;99.90;;;;;;6251704;28;20041;-81
2022/10/12 01:15:13;;;;;;;15.50;6.13;;;12.40;99.90;;;;;;6252367;28;20060;-80
2022/10/12 01:18:19;;;;;;;11.95;5.30;;;12.40;99.90;;;;;;6251149;28;20052;-80
2022/10/12 01:21:23;;;;;;;13.00;3.97;;;12.40;99.90;;;;;;6251943;28;20080;-81
2022/10/12 01:24:49;;;;;;;19.50;5.07;;;12.40;99.90;;;;;;6251918;28;20045;-80
2022/10/12 01:27:52;;;;;;;15.13;4.18;;;12.30;99.90;;;;;;6251144;28;20415;-80
2022/10/12 01:31:00;;;;;;;11.15;4.30;;;12.30;99.90;;;;;;6252143;28;20076;-80
2022/10/12 01:34:06;;;;;;;10.67;3.63;;;12.40;99.90;;;;;;6251368;28;20531;-81
2022/10/12 01:37:15;;;;;;;13.50;3.88;;;12.30;99.90;;;;;;6249650;28;20090;-79
2022/10/12 01:40:23;;;;;;;19.00;4.22;;;12.30;99.90;;;;;;6252108;28;20042;-80
2022/10/12 01:43:33;;;;;;;12.25;4.03;;;12.40;99.90;;;;;;6251363;28;20049;-81
2022/10/12 01:46:46;;;;;;;22.15;4.82;;;12.40;99.90;;;;;;6249375;28;20045;-80
2022/10/12 01:49:48;;;;;;;13.98;3.60;;;12.40;99.90;;;;;;6247794;28;20085;-80
2022/10/12 01:52:59;;;;;;;7.32;3.13;;;12.40;99.90;;;;;;6249021;28;20080;-80
2022/10/12 01:56:09;;;;;;;12.90;4.70;;;12.40;99.90;;;;;;6250631;28;20045;-80
2022/10/12 01:59:19;;;;;;;16.65;5.03;;;12.40;99.90;;;;;;6251215;28;20061;-80
2022/10/12 02:02:29;;;;;;;13.23;3.65;;;12.40;99.90;;;;;;6250959;28;20718;-80
2022/10/12 02:05:38;;;;;;;8.43;3.22;;;12.50;99.90;;;;;;6251305;28;20049;-80
2022/10/12 02:08:47;;;;;;;11.00;3.65;;;12.50;99.90;;;;;;6250375;28;20050;-80
2022/10/12 02:11:52;;;;;;;10.20;3.13;;;12.50;99.90;;;;;;6249962;28;20049;-79
2022/10/12 02:14:57;;;;;;;9.77;3.80;;;12.50;99.90;;;;;;6247828;28;20038;-80
2022/10/12 02:18:02;;;;;;;10.57;3.08;;;12.50;99.90;;;;;;6247207;28;20056;-79
2022/10/12 02:21:04;;;;;;;7.03;2.50;;;12.50;99.90;;;;;;6247466;28;20046;-80
2022/10/12 02:24:08;;;;;;;11.90;3.28;;;12.50;99.90;;;;;;6247393;28;20046;-79
2022/10/12 02:27:13;;;;;;;10.23;3.03;;;12.50;99.90;;;;;;6247273;28;20061;-81
2022/10/12 02:30:14;;;;;;;10.45;3.10;;;12.60;99.90;;;;;;6249802;28;20156;-80
2022/10/12 02:33:23;;;;;;;6.10;2.28;;;12.60;99.90;;;;;;6252875;28;20072;-81
2022/10/12 02:36:31;;;;;;;12.65;3.42;;;12.60;99.90;;;;;;6255397;28;20423;-80
2022/10/12 02:39:37;;;;;;;;;;;12.60;99.90;;;;;;6252833;28;20053;-80
2022/10/12 02:42:43;;;;;;;9.15;2.85;;;12.60;99.90;;;;;;6229135;28;19932;-80
2022/10/12 02:45:47;;;;;;;7.68;2.67;;;12.70;99.90;;;;;;6248476;28;20072;-80
2022/10/12 02:48:51;;;;;;;8.68;3.45;;;12.70;99.90;;;;;;6244911;28;20411;-80
2022/10/12 02:51:54;;;;;;;16.70;3.70;;;12.70;99.90;;;;;;6230790;28;20046;-81
2022/10/12 02:54:56;;;;;;;8.27;2.28;;;12.80;99.90;;;;;;6230067;28;20046;-80
2022/10/12 02:57:58;;;;;;;19.83;4.90;;;12.80;99.90;;;;;;6230512;28;20049;-81
2022/10/12 03:00:59;;;;;;;19.95;4.70;;;12.60;99.90;;;;;;6230464;28;20046;-80
2022/10/12 03:04:02;;;;;;;27.02;14.82;;;12.60;99.90;;;;;;6230502;28;20041;-81
2022/10/12 03:07:04;;;;;;;11.07;2.92;;;12.60;99.90;;;;;;6232858;28;20061;-80
2022/10/12 03:10:07;;;;;;;9.65;2.78;;;12.60;99.90;;;;;;6232264;28;20042;-80
2022/10/12 03:13:08;;;;;;;5.88;2.78;;;12.50;99.90;;;;;;6232645;28;20476;-81
2022/10/12 03:16:11;;;;;;;6.18;2.60;;;12.50;99.90;;;;;;6234682;28;20061;-80
2022/10/12 03:19:14;;;;;;;19.15;3.78;;;12.50;99.90;;;;;;6231400;28;20054;-80
2022/10/12 03:22:16;;;;;;;7.32;2.63;;;12.50;99.90;;;;;;6229365;28;20046;-80
2022/10/12 03:25:18;;;;;;;7.93;2.63;;;12.40;99.90;;;;;;6228797;28;20046;-80
2022/10/12 03:28:20;;;;;;;8.25;2.83;;;12.30;99.90;;;;;;6229148;28;20061;-81
2022/10/12 03:31:22;;;;;;;11.30;2.85;;;12.20;99.90;;;;;;6229957;28;20060;-81
2022/10/12 03:34:25;;;;;;;10.60;2.75;;;12.20;99.90;;;;;;6231655;28;20053;-81
2022/10/12 03:37:26;;;;;;;10.85;3.05;;;12.10;99.90;;;;;;6232734;28;20042;-81
2022/10/12 03:40:28;;;;;;;11.45;4.47;;;12.10;99.90;;;;;;6230078;28;20124;-81
2022/10/12 03:43:30;;;;;;;9.93;3.83;;;12.00;99.90;;;;;;6230811;28;20049;-81
2022/10/12 03:46:31;;;;;;;13.70;3.10;;;12.00;99.90;;;;;;6231144;28;20049;-81
2022/10/12 03:49:34;;;;;;;7.43;3.33;;;11.90;99.90;;;;;;6230500;28;20050;-81
2022/10/12 03:52:36;;;;;;;15.60;3.22;;;11.80;99.90;;;;;;6229797;28;20511;-81
2022/10/12 03:55:38;;;;;;;9.88;2.28;;;11.70;99.90;;;;;;6228469;28;20156;-81
2022/10/12 03:58:39;;;;;;;15.05;3.72;;;11.70;99.90;;;;;;6229253;28;20185;-81
2022/10/12 04:01:41;;;;;;;10.27;3.13;;;11.70;99.90;;;;;;6229057;28;20049;-81
2022/10/12 04:04:44;;;;;;;14.73;4.18;;;11.60;99.90;;;;;;6230105;28;20045;-80
2022/10/12 04:07:46;;;;;;;16.30;3.63;;;11.60;99.90;;;;;;6229163;28;20057;-81
2022/10/12 04:10:49;;;;;;;11.98;2.92;;;11.60;99.90;;;;;;6230199;28;20054;-81
2022/10/12 04:13:50;;;;;;;11.40;2.55;;;11.60;99.90;;;;;;6228828;28;20065;-81
2022/10/12 04:16:53;;;;;;;12.27;3.53;;;11.70;99.90;;;;;;6228270;28;20050;-80
2022/10/12 04:19:56;;;;;;;11.15;4.18;;;11.70;99.90;;;;;;6226797;28;20558;-80
2022/10/12 04:22:58;;;;;;;19.27;3.55;;;11.70;99.90;;;;;;6228307;28;20255;-80
2022/10/12 04:26:00;;;;;;;6.30;2.63;;;11.70;99.90;;;;;;6227034;28;20065;-81
2022/10/12 04:29:01;;;;;;;9.05;3.28;;;11.70;99.90;;;;;;6227543;28;20443;-80
2022/10/12 04:32:03;;;;;;;27.52;5.97;;;11.70;99.90;;;;;;6227668;28;20420;-81
2022/10/12 04:35:07;;;;;;;16.95;3.72;;;11.70;99.90;;;;;;6228154;28;20062;-80
2022/10/12 04:38:08;;;;;;;14.45;3.33;;;11.70;99.90;;;;;;6227050;28;20512;-80
2022/10/12 04:41:10;;;;;;;8.00;2.72;;;11.70;99.90;;;;;;6227393;28;20534;-80
2022/10/12 04:44:12;;;;;;;10.25;2.85;;;11.70;99.90;;;;;;6227865;28;20054;-80
2022/10/12 04:47:13;;;;;;;17.38;3.92;;;11.60;99.90;;;;;;6226918;28;20057;-80
2022/10/12 04:50:17;;;;;;;10.68;2.67;;;11.60;99.90;;;;;;6226270;28;20046;-80
2022/10/12 04:53:18;;;;;;;14.30;3.20;;;11.60;99.90;;;;;;6226023;28;20042;-80
2022/10/12 04:56:20;;;;;;;12.30;2.90;;;11.60;99.90;;;;;;6227040;28;20431;-79
2022/10/12 04:59:22;;;;;;;10.77;4.05;;;11.60;99.90;;;;;;6226399;28;20366;-79
2022/10/12 05:02:23;;;;;;;18.63;4.07;;;11.60;99.90;;;;;;6225416;28;20046;-79
2022/10/12 05:05:26;;;;;;;8.07;3.03;;;11.70;99.90;;;;;;6225848;28;20499;-80
2022/10/12 05:08:28;;;;;;;11.07;3.58;;;11.70;99.90;;;;;;6225708;28;20053;-80
2022/10/12 05:11:30;;;;;;;14.32;3.45;;;11.70;99.90;;;;;;6226776;28;20050;-80
2022/10/12 05:14:31;;;;;;;9.65;2.35;;;11.70;99.90;;;;;;6226095;28;20042;-81
2022/10/12 05:17:33;;;;;;;15.02;3.10;;;11.70;99.90;;;;;;6227101;28;20053;-80
2022/10/12 05:20:36;;;;;;;9.75;2.75;;;11.80;99.90;;;;;;6227014;28;20057;-81
2022/10/12 05:23:38;;;;;;;8.20;3.20;;;11.80;99.90;;;;;;6227020;28;20104;-81
2022/10/12 05:26:39;;;;;;;9.73;3.22;;;11.80;99.90;;;;;;6228227;28;20053;-81
2022/10/12 05:29:41;;;;;;;22.20;3.10;;;11.80;99.90;;;;;;6227221;28;20046;-81
2022/10/12 05:32:43;;;;;;;9.73;2.63;;;11.80;99.90;;;;;;6227178;28;20045;-80
2022/10/12 05:35:48;;;;;;;10.45;3.00;;;11.90;99.90;;;;;;6228155;28;20053;-80
2022/10/12 05:38:50;;;;;;;14.75;2.50;;;11.90;99.90;;;;;;6227864;28;20046;-81
2022/10/12 05:41:53;;;;;;;7.05;2.97;;;12.00;99.90;;;;;;6227980;28;20057;-81
2022/10/12 05:44:54;;;;;;;12.18;3.38;;;12.00;99.90;;;;;;6227635;28;20053;-81
2022/10/12 05:47:56;;;;;;;11.50;4.97;;;12.00;99.90;;;;;;6226939;28;20046;-80
2022/10/12 05:50:59;;;;;;;8.65;2.65;;;12.10;99.90;;;;;;6227221;28;20247;-81
2022/10/12 05:54:01;;;;;;;8.95;2.78;;;12.10;99.90;;;;;;6227652;28;20057;-81
2022/10/12 05:57:03;;;;;;;12.88;3.00;;;12.20;99.90;;;;;;6227078;28;20070;-81
2022/10/12 06:00:07;;;;;;;9.68;2.88;;;12.30;99.90;;;;;;6226459;28;20583;-81
2022/10/12 06:03:09;;;;;;;8.82;2.50;;;12.30;99.90;;;;;;6227429;28;20072;-80
2022/10/12 06:06:12;;;;;;;7.15;2.75;;;12.40;99.90;;;;;;6225567;28;20069;-80
2022/10/12 06:09:13;;;;;;;8.50;3.40;;;12.50;99.90;;;;;;6258207;28;20045;-80
2022/10/12 06:12:15;;;;;;;9.95;3.40;;;12.60;99.90;;;;;;6256723;28;20120;-81
2022/10/12 06:15:17;;;;;;;14.43;3.15;;;12.60;99.90;;;;;;6252488;28;20064;-80
2022/10/12 06:18:19;;;;;;;7.00;2.33;;;12.70;99.90;;;;;;6256877;28;20056;-82
2022/10/12 06:21:22;;;;;;;10.38;2.60;;;12.80;99.90;;;;;;6244084;28;20060;-81
2022/10/12 06:24:24;;;;;;;10.65;2.67;;;12.90;99.90;;;;;;6236262;28;20042;-83
2022/10/12 06:27:26;;;;;;;10.88;3.00;;;12.90;99.90;;;;;;6226457;28;20053;-80
2022/10/12 06:30:27;;;;;;;9.82;2.58;;;13.00;99.90;;;;;;6226152;28;20129;-83
2022/10/12 06:33:29;;;;;;;9.32;3.00;;;13.00;99.90;;;;;;6226636;28;20057;-79
2022/10/12 06:36:32;;;;;;;11.48;2.70;;;13.10;99.90;;;;;;6245424;28;20049;-80
2022/10/12 06:39:34;;;;;;;5.75;2.60;;;13.20;99.90;;;;;;6269503;28;20060;-80
2022/10/12 06:42:36;;;;;;;16.35;3.15;;;13.30;99.90;;;;;;6275280;28;20045;-79
2022/10/12 06:45:39;;;;;;;17.73;3.38;;;13.30;99.90;;;;;;6275120;28;20064;-80
2022/10/12 06:48:41;;;;;;;13.23;2.88;;;13.40;99.90;;;;;;6274738;28;20059;-80
2022/10/12 06:51:44;;;;;;;7.50;2.42;;;13.50;99.90;;;;;;6274818;28;20049;-79
2022/10/12 06:54:46;;;;;;;11.23;2.42;;;13.60;99.90;;;;;;6274864;28;20049;-79
2022/10/12 06:57:47;;;;;;;12.65;3.40;;;13.70;99.90;;;;;;6275391;28;20068;-79
2022/10/12 07:00:49;;;;;;;8.98;2.53;;;13.90;99.90;;;;;;6275389;28;20053;-79
2022/10/12 07:03:51;;;;;;;11.23;5.15;;;14.00;99.90;;;;;;6275829;28;20045;-79
2022/10/12 07:06:54;;;;;;;14.63;3.72;;;14.20;99.90;;;;;;6269148;28;20045;-79
2022/10/12 07:09:56;;;;;;;24.38;6.10;;;14.40;99.90;;;;;;6269759;28;20426;-78
2022/10/12 07:12:57;;;;;;;19.45;6.43;;;14.50;99.90;;;;;;6275447;28;20418;-79
2022/10/12 07:15:59;;;;;;;15.07;6.15;;;14.70;99.90;;;;;;6275710;28;20041;-80
2022/10/12 07:19:01;;;;;;;16.25;5.57;;;14.70;99.90;;;;;;6276239;28;20065;-79
2022/10/12 07:22:04;;;;;;;15.55;5.07;;;14.80;99.90;;;;;;6270267;28;20045;-79
2022/10/12 07:25:07;;;;;;;10.95;4.07;;;14.90;99.90;;;;;;6218505;28;20054;-80
2022/10/12 07:28:09;;;;;;;17.73;5.90;;;15.10;99.90;;;;;;6201891;28;20416;-79
2022/10/12 07:31:11;;;;;;;11.50;3.53;;;15.30;99.90;;;;;;6201509;28;20065;-80
2022/10/12 07:34:12;;;;;;;11.48;3.95;;;15.50;99.90;;;;;;6201465;28;20042;-80
2022/10/12 07:37:16;;;;;;;16.20;5.72;;;15.80;99.70;;;;;;6219029;28;20046;-80
2022/10/12 07:40:17;;;;;;;21.45;5.38;;;16.10;99.30;;;;;;6225244;28;20052;-79
2022/10/12 07:43:19;;;;;;;16.25;4.93;;;16.30;98.50;;;;;;6225962;28;20057;-80
2022/10/12 07:46:21;;;;;;;17.33;5.45;;;16.50;97.80;;;;;;6225457;28;20061;-80
2022/10/12 07:49:22;;;;;;;18.92;5.03;;;16.70;97.40;;;;;;6224893;28;20076;-79
2022/10/12 07:52:26;;;;;;;13.57;5.38;;;16.90;97.00;;;;;;6224951;28;20428;-80
2022/10/12 07:55:30;;;;;;;17.20;5.55;;;17.10;96.70;;;;;;6225869;28;20053;-80
2022/10/12 07:58:32;;;;;;;13.48;4.22;;;17.30;96.30;;;;;;6225416;28;20046;-80
2022/10/12 08:01:34;;;;;;;10.05;3.80;;;17.60;95.80;;;;;;6226777;28;20046;-81
2022/10/12 08:04:35;;;;;;;17.77;4.90;;;17.80;95.40;;;;;;6225140;28;20049;-81
2022/10/12 08:07:38;;;;;;;16.25;5.15;;;18.00;95.20;;;;;;6221867;28;20652;-80
2022/10/12 08:10:40;;;;;;;7.93;3.45;;;18.50;94.60;;;;;;6224893;28;20515;-81
2022/10/12 08:13:43;;;;;;;11.18;4.32;;;18.90;94.10;;;;;;6242341;28;20060;-80
2022/10/12 08:16:45;;;;;;;12.45;5.25;;;19.20;93.50;;;;;;6264981;28;20056;-81
2022/10/12 08:19:46;;;;;;;9.95;3.92;;;19.50;92.40;;;;;;6247096;28;20045;-81
2022/10/12 08:22:49;;;;;;;15.77;5.07;;;19.60;91.70;;;;;;6246826;28;20054;-81
2022/10/12 08:25:52;;;;;;;15.02;5.55;;;19.80;91.20;;;;;;6226504;28;20042;-81
2022/10/12 08:28:53;;;;;;;13.88;5.65;;;19.90;90.80;;;;;;6224559;28;20069;-81
2022/10/12 08:31:55;;;;;;;10.38;4.13;;;20.10;90.00;;;;;;6225552;28;20523;-81
2022/10/12 08:34:57;;;;;;;14.35;5.07;;;20.30;89.70;;;;;;6228337;28;20060;-81
2022/10/12 08:38:00;;;;;;;13.38;4.85;;;20.60;88.90;;;;;;6262006;28;20052;-81
2022/10/12 08:41:10;;;;;;;10.07;4.03;;;21.10;87.50;;;;;;6274494;28;20442;-81
2022/10/12 08:44:48;;;;;;;6.07;3.22;;;21.30;85.50;;;;;;6274067;28;20040;-81
2022/10/12 08:47:53;;;;;;;12.80;4.70;;;21.60;83.50;;;;;;6274436;28;20064;-81
2022/10/12 08:50:59;;;;;;;13.23;5.13;;;21.90;82.80;;;;;;6274702;28;20080;-81
2022/10/12 08:54:06;;;;;;;16.30;4.80;;;22.40;81.30;;;;;;6273840;28;20514;-81
2022/10/12 08:57:14;;;;;;;12.02;4.90;;;22.70;79.60;;;;;;6273619;28;20049;-81
2022/10/12 09:00:17;;;;;;;37.58;8.80;;;22.90;78.30;;;;;;6273588;28;20045;-81
2022/10/12 09:03:37;;;;;;;10.73;4.97;;;23.00;76.50;;;;;;6273695;28;20059;-81
2022/10/12 09:06:44;;;;;;;14.02;5.85;;;23.00;75.80;;;;;;6268237;28;20048;-81
2022/10/12 09:09:59;;;;;;;12.63;5.72;;;23.10;74.40;;;;;;6267284;28;20049;-81
2022/10/12 09:13:14;;;;;;;19.38;6.00;;;23.20;74.70;;;;;;6273661;28;20056;-81
2022/10/12 09:16:21;;;;;;;12.48;4.82;;;23.40;73.80;;;;;;6273456;28;20175;-81
2022/10/12 09:19:28;;;;;;;14.03;5.00;;;23.50;73.20;;;;;;6274427;28;20146;-81
2022/10/12 09:22:33;;;;;;;15.63;6.00;;;23.40;73.00;;;;;;6274071;28;20435;-81
2022/10/12 09:25:36;;;;;;;20.60;5.82;;;23.50;72.90;;;;;;6242015;28;20126;-81
2022/10/12 09:28:42;;;;;;;18.55;5.47;;;23.60;72.20;;;;;;6226374;28;20500;-80
2022/10/12 09:31:58;;;;;;;22.88;5.75;;;23.60;71.50;;;;;;6226408;28;20060;-81
2022/10/12 09:35:00;;;;;;;11.43;4.03;;;23.70;71.40;;;;;;6224970;28;20054;-81
2022/10/12 09:38:02;;;;;;;11.88;4.95;;;23.90;71.10;;;;;;6260509;28;20044;-81
2022/10/12 09:41:06;;;;;;;13.77;6.25;;;24.00;70.70;;;;;;6276235;28;20048;-81
2022/10/12 09:44:14;;;;;;;14.20;4.00;;;24.10;69.80;;;;;;6278094;28;20049;-81
2022/10/12 09:47:28;;;;;;;16.77;5.78;;;24.10;69.00;;;;;;6277790;28;20505;-81
2022/10/12 09:50:39;;;;;;;7.97;4.38;;;24.00;69.50;;;;;;6277768;28;20049;-81
2022/10/12 09:53:47;;;;;;;11.73;4.60;;;23.90;68.80;;;;;;6278487;28;20049;-81
2022/10/12 09:56:51;;;;;;;16.50;4.93;;;24.10;69.10;;;;;;6277736;28;20076;-81
2022/10/12 09:59:53;;;;;;;10.77;4.10;;;24.30;68.90;;;;;;6276457;28;20063;-81
2022/10/12 10:02:55;;;;;;;12.77;5.57;;;24.50;68.10;;;;;;6279415;28;20049;-81
2022/10/12 10:06:03;;;;;;;13.52;5.20;;;24.70;67.60;;;;;;6274366;28;20052;-81
2022/10/12 10:09:05;;;;;;;16.48;5.32;;;24.90;67.60;;;;;;6269504;28;20056;-81
2022/10/12 10:12:22;;;;;;;10.70;4.25;;;25.00;66.30;;;;;;6276264;28;20048;-80
2022/10/12 10:15:27;;;;;;;13.07;4.93;;;25.10;66.40;;;;;;6278525;28;20054;-81
2022/10/12 10:18:34;;;;;;;9.65;4.65;;;25.30;66.20;;;;;;6277219;28;20291;-82
2022/10/12 10:21:38;;;;;;;11.50;4.40;;;25.30;64.80;;;;;;6275970;28;20044;-81
2022/10/12 10:24:40;;;;;;;16.98;5.38;;;25.30;65.20;;;;;;6232257;28;20392;-81
2022/10/12 10:27:43;;;;;;;10.80;4.45;;;25.40;64.90;;;;;;6245682;28;20057;-81
2022/10/12 10:31:01;;;;;;;12.15;3.97;;;25.60;64.80;;;;;;6252742;28;20056;-81
2022/10/12 10:34:12;;;;;;;13.35;4.88;;;25.90;64.20;;;;;;6255041;28;20087;-82
2022/10/12 10:37:19;;;;;;;12.27;4.25;;;26.10;64.30;;;;;;6265632;28;20057;-82
2022/10/12 10:40:25;;;;;;;8.77;4.57;;;26.40;63.20;;;;;;6281104;28;20049;-82
2022/10/12 10:43:31;;;;;;;6.88;3.70;;;26.50;62.50;;;;;;6283808;28;20074;-82
2022/10/12 10:46:35;;;;;;;13.27;5.78;;;26.60;62.40;;;;;;6281852;28;20052;-82
2022/10/12 10:49:40;;;;;;;12.25;4.82;;;26.80;61.80;;;;;;6278122;28;20052;-82
2022/10/12 10:52:42;;;;;;;17.05;5.13;;;26.80;61.40;;;;;;6276657;28;20049;-83
2022/10/12 10:55:47;;;;;;;8.93;3.55;;;27.00;61.20;;;;;;6275844;28;20053;-83
2022/10/12 10:58:52;;;;;;;8.88;4.05;;;27.20;60.70;;;;;;6278564;28;20410;-82
2022/10/12 11:01:59;;;;;;;9.98;4.15;;;27.30;60.10;;;;;;6281599;28;20049;-82
2022/10/12 11:05:07;;;;;;;13.05;4.13;;;27.30;59.70;;;;;;6277629;28;20041;-82
2022/10/12 11:08:12;;;;;;;20.55;4.88;;;27.40;59.50;;;;;;6265358;28;20055;-82
2022/10/12 11:11:19;;;;;;;11.48;4.35;;;27.20;59.20;;;;;;6277623;28;20056;-83
2022/10/12 11:14:28;;;;;;;6.60;3.13;;;27.00;60.20;;;;;;6277281;28;20052;-82
2022/10/12 11:17:33;;;;;;;6.72;3.17;;;26.80;60.50;;;;;;6277374;28;20041;-83
2022/10/12 11:20:43;;;;;;;8.27;3.28;;;27.00;60.90;;;;;;6276081;28;20048;-82
2022/10/12 11:23:49;;;;;;;6.25;3.30;;;27.20;60.20;;;;;;6276696;28;20052;-82
2022/10/12 11:26:56;;;;;;;12.90;3.72;;;27.50;59.80;;;;;;6264927;28;20041;-82
2022/10/12 11:30:01;;;;;;;7.43;3.60;;;27.70;59.40;;;;;;6232021;28;20057;-82
2022/10/12 11:33:06;;;;;;;10.93;3.92;;;27.90;58.70;;;;;;6228815;28;20058;-82
2022/10/12 11:36:12;;;;;;;16.25;4.97;;;27.80;58.30;;;;;;6242360;28;20048;-83
2022/10/12 11:39:18;;;;;;;12.32;3.75;;;27.80;58.10;;;;;;6267259;28;20415;-82
2022/10/12 11:42:30;;;;;;;9.07;3.30;;;27.70;57.90;;;;;;6277030;28;20060;-83
2022/10/12 11:45:40;;;;;;;12.27;3.30;;;27.70;58.30;;;;;;6277553;28;20048;-83
2022/10/12 11:48:46;;;;;;;9.10;3.55;;;27.80;58.00;;;;;;6275597;28;20045;-83
2022/10/12 11:51:50;;;;;;;10.77;3.67;;;27.80;58.50;;;;;;6277019;28;20053;-83
2022/10/12 11:54:59;;;;;;;9.60;4.68;;;27.80;57.80;;;;;;6275467;28;20067;-83
2022/10/12 11:58:07;;;;;;;12.55;4.28;;;27.70;57.90;;;;;;6275131;28;20049;-84
2022/10/12 12:01:34;;;;;;;9.20;3.10;;;27.60;58.30;;;;;;6274866;28;20521;-83
2022/10/12 12:04:37;;;;;;;14.52;4.72;;;27.80;58.20;;;;;;6275462;28;20143;-83
2022/10/12 12:07:45;;;;;;;7.20;3.53;;;28.20;57.70;;;;;;6264122;28;20072;-82
2022/10/12 12:11:04;;;;;;;14.75;4.03;;;28.30;57.60;;;;;;6276914;28;20071;-84
2022/10/12 12:14:42;;;;;;;10.52;3.08;;;28.50;56.90;;;;;;6276435;28;20049;-83
2022/10/12 12:18:10;;;;;;;7.83;3.83;;;28.70;56.50;;;;;;6261923;28;20052;-84
2022/10/12 12:21:11;;;;;;;9.50;3.25;;;28.80;56.20;;;;;;6252198;28;20857;-83
2022/10/12 12:24:17;;;;;;;18.08;4.85;;;28.80;56.30;;;;;;6251503;28;20419;-83
2022/10/12 12:27:28;;;;;;;13.38;4.22;;;28.90;56.10;;;;;;6244667;28;20049;-83
2022/10/12 12:30:37;;;;;;;16.60;3.92;;;28.90;56.00;;;;;;6244942;28;20053;-83
2022/10/12 12:33:42;;;;;;;14.45;4.65;;;29.00;55.70;;;;;;6250335;28;20628;-83
2022/10/12 12:36:46;;;;;;;7.95;3.03;;;29.20;55.10;;;;;;6254850;28;20045;-83
2022/10/12 12:39:53;;;;;;;8.88;2.85;;;29.40;55.20;;;;;;6270823;28;20736;-84
2022/10/12 12:43:19;;;;;;;7.82;2.88;;;29.50;55.00;;;;;;6275509;28;20075;-83
2022/10/12 12:46:21;;;;;;;9.35;3.05;;;29.50;54.70;;;;;;6275910;28;20051;-83
2022/10/12 12:49:29;;;;;;;15.02;4.30;;;29.40;54.90;;;;;;6274087;28;20053;-83
2022/10/12 12:52:33;;;;;;;13.48;3.70;;;29.10;54.50;;;;;;6274173;28;20055;-83
2022/10/12 12:56:03;;;;;;;12.75;4.07;;;28.50;55.10;;;;;;6275538;28;20411;-83
2022/10/12 12:59:36;;;;;;;16.25;4.82;;;28.00;56.00;;;;;;6273901;28;20044;-83
2022/10/12 13:03:10;;;;;;;11.43;3.80;;;27.50;56.70;;;;;;6272597;28;20057;-82
2022/10/12 13:06:52;;;;;;;10.07;4.32;;;27.00;57.80;;;;;;6269613;28;20392;-82
2022/10/12 13:10:13;;;;;;;9.63;3.50;;;26.70;59.00;;;;;;6230079;28;20064;-83
2022/10/12 13:13:32;;;;;;;11.35;3.85;;;26.70;59.00;;;;;;6271415;28;20717;-83
2022/10/12 13:17:00;;;;;;;13.57;3.53;;;26.90;59.50;;;;;;6271967;28;20435;-82
2022/10/12 13:20:11;;;;;;;12.90;3.58;;;27.10;59.00;;;;;;6271865;28;20490;-83
2022/10/12 13:23:18;;;;;;;9.93;4.30;;;27.40;58.20;;;;;;6275002;28;20053;-82
2022/10/12 13:26:25;;;;;;;9.50;3.63;;;27.60;58.20;;;;;;6274838;28;20048;-81
2022/10/12 13:29:36;;;;;;;5.20;2.67;;;27.80;58.30;;;;;;6251210;28;20120;-81
2022/10/12 13:32:45;;;;;;;12.75;3.95;;;27.90;57.90;;;;;;6247690;28;20052;-81
2022/10/12 13:35:52;;;;;;;16.45;3.47;;;27.80;57.00;;;;;;6251451;28;20049;-80
2022/10/12 13:38:57;;;;;;;7.60;2.92;;;27.40;58.00;;;;;;6264481;28;20060;-80
2022/10/12 13:42:01;;;;;;;10.77;2.95;;;27.20;58.10;;;;;;6272658;28;20695;-81
2022/10/12 13:45:07;;;;;;;15.43;4.75;;;27.20;58.40;;;;;;6272485;28;20048;-82
2022/10/12 13:48:17;;;;;;;11.27;3.88;;;27.10;58.30;;;;;;6272305;28;20049;-81
2022/10/12 13:51:23;;;;;;;13.07;3.25;;;27.10;58.60;;;;;;6273559;28;20049;-81
2022/10/12 13:54:34;;;;;;;6.72;2.45;;;27.40;58.50;;;;;;6273714;28;20049;-80
2022/10/12 13:57:41;;;;;;;7.63;2.78;;;27.70;58.30;;;;;;6273737;28;20053;-81
2022/10/12 14:00:47;;;;;;;7.03;2.72;;;28.10;57.10;;;;;;6274430;28;20048;-81
2022/10/12 14:03:49;;;;;;;9.80;3.10;;;28.10;56.40;;;;;;6274347;28;20049;-81
2022/10/12 14:06:56;;;;;;;5.68;2.65;;;27.50;57.10;;;;;;6268272;28;20045;-81
2022/10/12 14:10:03;;;;;;;11.88;5.32;;;27.30;58.50;;;;;;6271900;28;20053;-81
2022/10/12 14:13:08;;;;;;;5.15;2.53;;;27.50;58.40;;;;;;6261419;28;20046;-81
2022/10/12 14:16:12;;;;;;;15.93;3.72;;;27.70;57.90;;;;;;6249751;28;20041;-81
2022/10/12 14:19:31;;;;;;;8.88;3.28;;;27.80;57.50;;;;;;6251421;28;20050;-82
2022/10/12 14:22:33;;;;;;;14.13;5.78;;;27.90;57.80;;;;;;6247916;28;20041;-81
2022/10/12 14:25:37;;;;;;;14.88;4.78;;;28.00;57.80;;;;;;6251526;28;20053;-81
2022/10/12 14:28:39;;;;;;;22.55;10.23;;;28.10;57.00;;;;;;6252877;28;20049;-81
2022/10/12 14:31:52;;;;;;;15.00;9.95;;;28.10;57.40;;;;;;6238688;28;20046;-81
2022/10/12 14:35:09;;;;;;;6.90;3.13;;;28.30;57.10;;;;;;6230341;28;20041;-81
2022/10/12 14:38:30;;;;;;;;;;;28.30;56.80;;;;;;6267229;28;20442;-81
2022/10/12 14:41:36;;;;;;;10.65;3.45;;;28.20;56.80;;;;;;6279770;28;19928;-81
2022/10/12 14:44:42;;;;;;;14.48;4.10;;;28.10;57.00;;;;;;6280985;28;20048;-81
2022/10/12 14:47:44;;;;;;;12.23;4.03;;;28.10;57.00;;;;;;6279534;28;20052;-81
2022/10/12 14:50:46;;;;;;;7.20;3.05;;;28.10;57.00;;;;;;6279519;28;20523;-81
2022/10/12 14:53:58;;;;;;;12.15;3.38;;;28.00;57.10;;;;;;6279910;28;20051;-81
2022/10/12 14:57:12;;;;;;;13.52;2.85;;;27.90;57.40;;;;;;6279333;28;20046;-82
2022/10/12 15:00:15;;;;;;;13.13;5.28;;;27.70;57.60;;;;;;6277752;28;20049;-81
2022/10/12 15:03:16;;;;;;;14.80;5.22;;;27.60;57.70;;;;;;6278500;28;20048;-81
2022/10/12 15:06:18;;;;;;;12.77;5.35;;;27.40;58.10;;;;;;6273153;28;20048;-80
2022/10/12 15:09:20;;;;;;;17.13;4.30;;;27.20;58.30;;;;;;6269354;28;20075;-81
2022/10/12 15:12:23;;;;;;;18.92;3.25;;;27.00;58.70;;;;;;6277609;28;20049;-81
2022/10/12 15:15:33;;;;;;;7.78;3.20;;;26.70;59.30;;;;;;6278698;28;20068;-81
2022/10/12 15:18:35;;;;;;;10.00;3.53;;;26.40;59.90;;;;;;6276732;28;20049;-81
2022/10/12 15:21:36;;;;;;;15.77;3.95;;;26.10;60.50;;;;;;6277233;28;20037;-81
2022/10/12 15:24:38;;;;;;;13.63;4.28;;;25.70;61.30;;;;;;6277072;28;20044;-81
2022/10/12 15:27:41;;;;;;;11.95;3.53;;;25.40;61.80;;;;;;6276889;28;20052;-81
2022/10/12 15:30:43;;;;;;;21.45;7.05;;;25.10;63.00;;;;;;6264265;28;20422;-80
2022/10/12 15:33:45;;;;;;;14.55;3.95;;;24.70;63.50;;;;;;6234350;28;20057;-80
2022/10/12 15:36:46;;;;;;;7.97;3.60;;;24.30;64.90;;;;;;6271377;28;20052;-80
2022/10/12 15:39:48;;;;;;;16.45;3.75;;;23.90;65.80;;;;;;6270969;28;20056;-81
2022/10/12 15:42:51;;;;;;;17.83;10.05;;;23.50;66.70;;;;;;6280256;28;20053;-82
2022/10/12 15:45:55;;;;;;;18.35;4.88;;;23.20;67.60;;;;;;6278792;28;20052;-80
2022/10/12 15:48:56;;;;;;;12.82;3.00;;;23.00;68.50;;;;;;6279745;28;20081;-81
2022/10/12 15:51:58;;;;;;;19.02;4.15;;;22.70;69.10;;;;;;6280788;28;20048;-81
2022/10/12 15:55:00;;;;;;;36.45;5.82;;;22.50;70.30;;;;;;6281628;28;20048;-81
2022/10/12 15:58:04;;;;;;;9.35;4.72;;;22.20;71.40;;;;;;6282552;28;20049;-80